sensor_id;sensor_type;location;lat;lon;timestamp;temperature;humidity
1592;DHT22;789;51.612;7.510;2022-11-20T00:00:15;1.00;1.00
1592;DHT22;789;51.612;7.510;2022-11-20T00:02:42;1.00;1.00
1592;DHT22;789;51.612;7.510;2022-11-20T00:05:09;1.00;1.00
1592;DHT22;789;51.612;7.510;2022-11-20T00:07:36;0.80;1.00
1592;DHT22;789;51.612;7.510;2022-11-20T00:10:03;0.80;1.00
1592;DHT22;789;51.612;7.510;2022-11-20T00:12:31;0.80;1.00
1592;DHT22;789;51.612;7.510;2022-11-20T00:14:58;0.80;1.00
1592;DHT22;789;51.612;7.510;2022-11-20T00:17:25;0.80;1.00
1592;DHT22;789;51.612;7.510;2022-11-20T00:19:51;0.80;1.00
1592;DHT22;789;51.612;7.510;2022-11-20T00:22:18;0.80;1.00
1592;DHT22;789;51.612;7.510;2022-11-20T00:24:45;0.80;1.00
1592;DHT22;789;51.612;7.510;2022-11-20T00:27:11;0.80;1.00
1592;DHT22;789;51.612;7.510;2022-11-20T00:29:40;0.70;1.00
1592;DHT22;789;51.612;7.510;2022-11-20T00:32:06;0.70;1.00
1592;DHT22;789;51.612;7.510;2022-11-20T00:34:33;0.70;1.00
1592;DHT22;789;51.612;7.510;2022-11-20T00:37:00;0.70;1.00
1592;DHT22;789;51.612;7.510;2022-11-20T00:39:26;0.60;1.00
1592;DHT22;789;51.612;7.510;2022-11-20T00:41:53;0.60;1.00
1592;DHT22;789;51.612;7.510;2022-11-20T00:44:20;0.60;1.00
1592;DHT22;789;51.612;7.510;2022-11-20T00:46:48;0.60;1.00
1592;DHT22;789;51.612;7.510;2022-11-20T00:49:15;0.60;1.00
1592;DHT22;789;51.612;7.510;2022-11-20T00:51:41;0.60;1.00
1592;DHT22;789;51.612;7.510;2022-11-20T00:54:08;0.60;1.00
1592;DHT22;789;51.612;7.510;2022-11-20T00:56:35;0.60;1.00
1592;DHT22;789;51.612;7.510;2022-11-20T00:59:02;0.60;1.00
1592;DHT22;789;51.612;7.510;2022-11-20T01:01:29;0.60;1.00
1592;DHT22;789;51.612;7.510;2022-11-20T01:03:59;0.60;1.00
1592;DHT22;789;51.612;7.510;2022-11-20T01:06:28;0.60;1.00
1592;DHT22;789;51.612;7.510;2022-11-20T01:08:57;0.70;1.00
1592;DHT22;789;51.612;7.510;2022-11-20T01:11:26;0.70;1.00
1592;DHT22;789;51.612;7.510;2022-11-20T01:13:53;0.80;1.00
1592;DHT22;789;51.612;7.510;2022-11-20T01:16:22;0.80;1.00
1592;DHT22;789;51.612;7.510;2022-11-20T01:18:51;0.90;1.00
1592;DHT22;789;51.612;7.510;2022-11-20T01:21:21;0.90;1.00
1592;DHT22;789;51.612;7.510;2022-11-20T01:23:49;0.90;1.00
1592;DHT22;789;51.612;7.510;2022-11-20T01:26:18;0.90;1.00
1592;DHT22;789;51.612;7.510;2022-11-20T01:28:45;0.90;1.00
1592;DHT22;789;51.612;7.510;2022-11-20T01:31:14;0.90;1.00
1592;DHT22;789;51.612;7.510;2022-11-20T01:33:42;0.90;1.00
1592;DHT22;789;51.612;7.510;2022-11-20T01:36:10;0.90;1.00
1592;DHT22;789;51.612;7.510;2022-11-20T01:38:39;1.00;1.00
1592;DHT22;789;51.612;7.510;2022-11-20T01:41:06;1.00;1.00
1592;DHT22;789;51.612;7.510;2022-11-20T01:43:34;1.00;1.00
1592;DHT22;789;51.612;7.510;2022-11-20T01:46:08;1.00;1.00
1592;DHT22;789;51.612;7.510;2022-11-20T01:48:43;1.00;1.00
1592;DHT22;789;51.612;7.510;2022-11-20T01:51:16;1.10;1.00
1592;DHT22;789;51.612;7.510;2022-11-20T01:53:46;1.10;1.00
1592;DHT22;789;51.612;7.510;2022-11-20T01:56:14;1.10;1.00
1592;DHT22;789;51.612;7.510;2022-11-20T01:58:44;1.10;1.00
1592;DHT22;789;51.612;7.510;2022-11-20T02:01:14;1.10;1.00
1592;DHT22;789;51.612;7.510;2022-11-20T02:03:42;1.10;1.00
1592;DHT22;789;51.612;7.510;2022-11-20T02:06:13;1.20;1.00
1592;DHT22;789;51.612;7.510;2022-11-20T02:08:41;1.20;1.00
1592;DHT22;789;51.612;7.510;2022-11-20T02:11:09;1.30;1.00
1592;DHT22;789;51.612;7.510;2022-11-20T02:13:38;1.40;1.00
1592;DHT22;789;51.612;7.510;2022-11-20T02:16:20;1.40;1.00
1592;DHT22;789;51.612;7.510;2022-11-20T02:18:47;1.20;1.00
1592;DHT22;789;51.612;7.510;2022-11-20T02:21:34;1.10;1.00
1592;DHT22;789;51.612;7.510;2022-11-20T02:24:08;1.00;1.00
1592;DHT22;789;51.612;7.510;2022-11-20T02:26:41;1.10;1.00
1592;DHT22;789;51.612;7.510;2022-11-20T02:29:08;1.00;1.00
1592;DHT22;789;51.612;7.510;2022-11-20T02:31:38;0.90;1.00
1592;DHT22;789;51.612;7.510;2022-11-20T02:34:05;0.80;1.00
1592;DHT22;789;51.612;7.510;2022-11-20T02:36:32;0.90;1.00
1592;DHT22;789;51.612;7.510;2022-11-20T02:39:00;1.00;1.00
1592;DHT22;789;51.612;7.510;2022-11-20T02:41:32;1.00;1.00
1592;DHT22;789;51.612;7.510;2022-11-20T02:44:00;1.00;1.00
1592;DHT22;789;51.612;7.510;2022-11-20T02:46:26;1.10;1.00
1592;DHT22;789;51.612;7.510;2022-11-20T02:48:53;1.20;1.00
1592;DHT22;789;51.612;7.510;2022-11-20T02:51:20;1.20;1.00
1592;DHT22;789;51.612;7.510;2022-11-20T02:53:47;1.40;1.00
1592;DHT22;789;51.612;7.510;2022-11-20T02:56:13;1.50;1.00
1592;DHT22;789;51.612;7.510;2022-11-20T02:58:42;1.50;1.00
1592;DHT22;789;51.612;7.510;2022-11-20T03:01:08;1.50;1.00
1592;DHT22;789;51.612;7.510;2022-11-20T03:03:35;1.50;1.00
1592;DHT22;789;51.612;7.510;2022-11-20T03:06:02;1.60;1.00
1592;DHT22;789;51.612;7.510;2022-11-20T03:08:28;1.60;1.00
1592;DHT22;789;51.612;7.510;2022-11-20T03:10:55;1.60;1.00
1592;DHT22;789;51.612;7.510;2022-11-20T03:13:22;1.60;1.00
1592;DHT22;789;51.612;7.510;2022-11-20T03:15:50;1.60;1.00
1592;DHT22;789;51.612;7.510;2022-11-20T03:18:17;1.60;1.00
1592;DHT22;789;51.612;7.510;2022-11-20T03:20:43;1.60;1.00
1592;DHT22;789;51.612;7.510;2022-11-20T03:23:10;1.60;1.00
1592;DHT22;789;51.612;7.510;2022-11-20T03:25:37;1.60;1.00
1592;DHT22;789;51.612;7.510;2022-11-20T03:28:10;1.60;1.00
1592;DHT22;789;51.612;7.510;2022-11-20T03:30:37;1.70;1.00
1592;DHT22;789;51.612;7.510;2022-11-20T03:33:05;1.60;1.00
1592;DHT22;789;51.612;7.510;2022-11-20T03:35:32;1.60;1.00
1592;DHT22;789;51.612;7.510;2022-11-20T03:37:58;1.70;1.00
1592;DHT22;789;51.612;7.510;2022-11-20T03:40:25;1.70;1.00
1592;DHT22;789;51.612;7.510;2022-11-20T03:42:52;1.70;1.00
1592;DHT22;789;51.612;7.510;2022-11-20T03:45:18;1.70;1.00
1592;DHT22;789;51.612;7.510;2022-11-20T03:47:46;1.60;1.00
1592;DHT22;789;51.612;7.510;2022-11-20T03:50:14;1.60;1.00
1592;DHT22;789;51.612;7.510;2022-11-20T03:52:41;1.60;1.00
1592;DHT22;789;51.612;7.510;2022-11-20T03:55:08;1.60;1.00
1592;DHT22;789;51.612;7.510;2022-11-20T03:57:35;1.60;1.00
1592;DHT22;789;51.612;7.510;2022-11-20T04:00:02;1.60;1.00
1592;DHT22;789;51.612;7.510;2022-11-20T04:02:29;1.50;1.00
1592;DHT22;789;51.612;7.510;2022-11-20T04:04:55;1.50;1.00
1592;DHT22;789;51.612;7.510;2022-11-20T04:07:24;1.30;1.00
1592;DHT22;789;51.612;7.510;2022-11-20T04:09:50;1.30;1.00
1592;DHT22;789;51.612;7.510;2022-11-20T04:12:17;1.30;1.00
1592;DHT22;789;51.612;7.510;2022-11-20T04:14:44;1.20;1.00
1592;DHT22;789;51.612;7.510;2022-11-20T04:17:10;1.20;1.00
1592;DHT22;789;51.612;7.510;2022-11-20T04:19:37;1.20;1.00
1592;DHT22;789;51.612;7.510;2022-11-20T04:22:04;1.20;1.00
1592;DHT22;789;51.612;7.510;2022-11-20T04:24:32;1.30;1.00
1592;DHT22;789;51.612;7.510;2022-11-20T04:26:58;1.20;1.00
1592;DHT22;789;51.612;7.510;2022-11-20T04:29:25;1.20;1.00
1592;DHT22;789;51.612;7.510;2022-11-20T04:31:52;1.20;1.00
1592;DHT22;789;51.612;7.510;2022-11-20T04:34:18;1.20;1.00
1592;DHT22;789;51.612;7.510;2022-11-20T04:36:45;1.20;1.00
1592;DHT22;789;51.612;7.510;2022-11-20T04:39:13;1.20;1.00
1592;DHT22;789;51.612;7.510;2022-11-20T04:41:42;1.20;1.00
1592;DHT22;789;51.612;7.510;2022-11-20T04:44:08;1.20;1.00
1592;DHT22;789;51.612;7.510;2022-11-20T04:46:37;1.30;1.00
1592;DHT22;789;51.612;7.510;2022-11-20T04:49:05;1.30;1.00
1592;DHT22;789;51.612;7.510;2022-11-20T04:51:33;1.30;1.00
1592;DHT22;789;51.612;7.510;2022-11-20T04:54:00;1.30;1.00
1592;DHT22;789;51.612;7.510;2022-11-20T04:56:27;1.30;1.00
1592;DHT22;789;51.612;7.510;2022-11-20T04:58:55;1.20;1.00
1592;DHT22;789;51.612;7.510;2022-11-20T05:01:23;1.20;1.00
1592;DHT22;789;51.612;7.510;2022-11-20T05:03:50;1.30;1.00
1592;DHT22;789;51.612;7.510;2022-11-20T05:06:19;1.30;1.00
1592;DHT22;789;51.612;7.510;2022-11-20T05:08:46;1.30;1.00
1592;DHT22;789;51.612;7.510;2022-11-20T05:11:14;1.30;1.00
1592;DHT22;789;51.612;7.510;2022-11-20T05:13:41;1.30;1.00
1592;DHT22;789;51.612;7.510;2022-11-20T05:16:10;1.30;1.00
1592;DHT22;789;51.612;7.510;2022-11-20T05:18:38;1.20;1.00
1592;DHT22;789;51.612;7.510;2022-11-20T05:21:06;1.20;1.00
1592;DHT22;789;51.612;7.510;2022-11-20T05:23:33;1.20;1.00
1592;DHT22;789;51.612;7.510;2022-11-20T05:26:00;1.10;1.00
1592;DHT22;789;51.612;7.510;2022-11-20T05:28:28;1.20;1.00
1592;DHT22;789;51.612;7.510;2022-11-20T05:30:55;1.20;1.00
1592;DHT22;789;51.612;7.510;2022-11-20T05:33:23;1.10;1.00
1592;DHT22;789;51.612;7.510;2022-11-20T05:35:50;1.10;1.00
1592;DHT22;789;51.612;7.510;2022-11-20T05:38:16;1.10;1.00
1592;DHT22;789;51.612;7.510;2022-11-20T05:40:43;1.00;1.00
1592;DHT22;789;51.612;7.510;2022-11-20T05:43:10;1.00;1.00
1592;DHT22;789;51.612;7.510;2022-11-20T05:45:36;1.00;1.00
1592;DHT22;789;51.612;7.510;2022-11-20T05:48:03;1.00;1.00
1592;DHT22;789;51.612;7.510;2022-11-20T05:50:32;1.00;1.00
1592;DHT22;789;51.612;7.510;2022-11-20T05:52:59;0.90;1.00
1592;DHT22;789;51.612;7.510;2022-11-20T05:55:25;0.90;1.00
1592;DHT22;789;51.612;7.510;2022-11-20T05:57:53;0.90;1.00
1592;DHT22;789;51.612;7.510;2022-11-20T06:00:20;0.90;1.00
1592;DHT22;789;51.612;7.510;2022-11-20T06:02:47;0.90;1.00
1592;DHT22;789;51.612;7.510;2022-11-20T06:05:14;0.80;1.00
1592;DHT22;789;51.612;7.510;2022-11-20T06:07:42;0.80;1.00
1592;DHT22;789;51.612;7.510;2022-11-20T06:10:09;0.80;1.00
1592;DHT22;789;51.612;7.510;2022-11-20T06:12:36;0.80;1.00
1592;DHT22;789;51.612;7.510;2022-11-20T06:15:04;0.80;1.00
1592;DHT22;789;51.612;7.510;2022-11-20T06:17:31;0.80;1.00
1592;DHT22;789;51.612;7.510;2022-11-20T06:19:57;0.80;1.00
1592;DHT22;789;51.612;7.510;2022-11-20T06:22:24;0.90;1.00
1592;DHT22;789;51.612;7.510;2022-11-20T06:24:52;0.90;1.00
1592;DHT22;789;51.612;7.510;2022-11-20T06:27:19;0.90;1.00
1592;DHT22;789;51.612;7.510;2022-11-20T06:29:45;1.00;1.00
1592;DHT22;789;51.612;7.510;2022-11-20T06:32:12;1.00;1.00
1592;DHT22;789;51.612;7.510;2022-11-20T06:34:39;1.10;1.00
1592;DHT22;789;51.612;7.510;2022-11-20T06:37:05;1.10;1.00
1592;DHT22;789;51.612;7.510;2022-11-20T06:39:32;1.20;1.00
1592;DHT22;789;51.612;7.510;2022-11-20T06:42:00;1.10;1.00
1592;DHT22;789;51.612;7.510;2022-11-20T06:44:27;1.20;1.00
1592;DHT22;789;51.612;7.510;2022-11-20T06:46:54;1.20;1.00
1592;DHT22;789;51.612;7.510;2022-11-20T06:49:21;1.20;1.00
1592;DHT22;789;51.612;7.510;2022-11-20T06:51:47;1.20;1.00
1592;DHT22;789;51.612;7.510;2022-11-20T06:54:14;1.20;1.00
1592;DHT22;789;51.612;7.510;2022-11-20T06:56:41;1.30;1.00
1592;DHT22;789;51.612;7.510;2022-11-20T06:59:09;1.20;1.00
1592;DHT22;789;51.612;7.510;2022-11-20T07:01:36;1.30;1.00
1592;DHT22;789;51.612;7.510;2022-11-20T07:04:03;1.20;1.00
1592;DHT22;789;51.612;7.510;2022-11-20T07:06:29;1.20;1.00
1592;DHT22;789;51.612;7.510;2022-11-20T07:08:56;1.20;1.00
1592;DHT22;789;51.612;7.510;2022-11-20T07:11:23;1.20;1.00
1592;DHT22;789;51.612;7.510;2022-11-20T07:13:50;1.20;1.00
1592;DHT22;789;51.612;7.510;2022-11-20T07:16:18;1.10;1.00
1592;DHT22;789;51.612;7.510;2022-11-20T07:18:45;1.10;1.00
1592;DHT22;789;51.612;7.510;2022-11-20T07:21:12;1.10;1.00
1592;DHT22;789;51.612;7.510;2022-11-20T07:23:38;1.10;1.00
1592;DHT22;789;51.612;7.510;2022-11-20T07:26:05;1.10;1.00
1592;DHT22;789;51.612;7.510;2022-11-20T07:28:33;1.10;1.00
1592;DHT22;789;51.612;7.510;2022-11-20T07:31:00;1.10;1.00
1592;DHT22;789;51.612;7.510;2022-11-20T07:33:28;1.20;1.00
1592;DHT22;789;51.612;7.510;2022-11-20T07:35:59;1.20;1.00
1592;DHT22;789;51.612;7.510;2022-11-20T07:38:26;1.20;1.00
1592;DHT22;789;51.612;7.510;2022-11-20T07:40:54;1.30;1.00
1592;DHT22;789;51.612;7.510;2022-11-20T07:43:21;1.30;1.00
1592;DHT22;789;51.612;7.510;2022-11-20T07:45:50;1.40;1.00
1592;DHT22;789;51.612;7.510;2022-11-20T07:48:17;1.50;1.00
1592;DHT22;789;51.612;7.510;2022-11-20T07:50:45;1.60;1.00
1592;DHT22;789;51.612;7.510;2022-11-20T07:53:12;1.70;1.00
1592;DHT22;789;51.612;7.510;2022-11-20T07:55:39;1.80;1.00
1592;DHT22;789;51.612;7.510;2022-11-20T07:58:06;2.00;1.00
1592;DHT22;789;51.612;7.510;2022-11-20T08:00:33;2.10;1.00
1592;DHT22;789;51.612;7.510;2022-11-20T08:03:03;2.20;1.00
1592;DHT22;789;51.612;7.510;2022-11-20T08:05:30;2.40;1.00
1592;DHT22;789;51.612;7.510;2022-11-20T08:07:58;2.90;1.00
1592;DHT22;789;51.612;7.510;2022-11-20T08:10:25;3.30;1.00
1592;DHT22;789;51.612;7.510;2022-11-20T08:12:53;3.80;1.00
1592;DHT22;789;51.612;7.510;2022-11-20T08:15:38;4.70;1.00
1592;DHT22;789;51.612;7.510;2022-11-20T08:18:08;5.80;1.00
1592;DHT22;789;51.612;7.510;2022-11-20T08:20:35;7.20;1.00
1592;DHT22;789;51.612;7.510;2022-11-20T08:23:06;8.40;1.00
1592;DHT22;789;51.612;7.510;2022-11-20T08:25:34;9.60;1.00
1592;DHT22;789;51.612;7.510;2022-11-20T08:28:03;10.50;1.00
1592;DHT22;789;51.612;7.510;2022-11-20T08:30:30;11.30;1.00
1592;DHT22;789;51.612;7.510;2022-11-20T08:33:01;12.00;1.00
1592;DHT22;789;51.612;7.510;2022-11-20T08:35:28;12.90;1.00
1592;DHT22;789;51.612;7.510;2022-11-20T08:37:55;13.70;1.00
1592;DHT22;789;51.612;7.510;2022-11-20T08:40:23;14.40;1.00
1592;DHT22;789;51.612;7.510;2022-11-20T08:42:50;15.10;1.00
1592;DHT22;789;51.612;7.510;2022-11-20T08:45:18;15.80;1.00
1592;DHT22;789;51.612;7.510;2022-11-20T08:47:45;16.50;1.00
1592;DHT22;789;51.612;7.510;2022-11-20T08:50:14;17.20;1.00
1592;DHT22;789;51.612;7.510;2022-11-20T08:52:41;17.80;1.00
1592;DHT22;789;51.612;7.510;2022-11-20T08:55:09;18.20;1.00
1592;DHT22;789;51.612;7.510;2022-11-20T08:57:38;18.70;1.00
1592;DHT22;789;51.612;7.510;2022-11-20T09:00:06;19.30;1.00
1592;DHT22;789;51.612;7.510;2022-11-20T09:02:34;19.80;1.00
1592;DHT22;789;51.612;7.510;2022-11-20T09:05:01;20.20;1.00
1592;DHT22;789;51.612;7.510;2022-11-20T09:07:28;20.50;1.00
1592;DHT22;789;51.612;7.510;2022-11-20T09:09:55;20.80;1.00
1592;DHT22;789;51.612;7.510;2022-11-20T09:12:22;20.90;1.00
1592;DHT22;789;51.612;7.510;2022-11-20T09:14:51;21.30;1.00
1592;DHT22;789;51.612;7.510;2022-11-20T09:17:17;21.90;1.00
1592;DHT22;789;51.612;7.510;2022-11-20T09:19:46;22.60;1.00
1592;DHT22;789;51.612;7.510;2022-11-20T09:22:12;23.10;1.00
1592;DHT22;789;51.612;7.510;2022-11-20T09:24:39;23.40;1.00
1592;DHT22;789;51.612;7.510;2022-11-20T09:27:08;23.70;1.00
1592;DHT22;789;51.612;7.510;2022-11-20T09:29:35;24.00;1.00
1592;DHT22;789;51.612;7.510;2022-11-20T09:32:03;24.30;1.00
1592;DHT22;789;51.612;7.510;2022-11-20T09:34:30;24.60;1.00
1592;DHT22;789;51.612;7.510;2022-11-20T09:36:57;25.10;1.00
1592;DHT22;789;51.612;7.510;2022-11-20T09:39:23;25.30;1.00
1592;DHT22;789;51.612;7.510;2022-11-20T09:42:01;25.30;1.00
1592;DHT22;789;51.612;7.510;2022-11-20T09:44:49;25.10;1.00
1592;DHT22;789;51.612;7.510;2022-11-20T09:47:27;24.80;1.00
1592;DHT22;789;51.612;7.510;2022-11-20T09:50:10;24.70;1.00
1592;DHT22;789;51.612;7.510;2022-11-20T09:52:50;24.60;1.00
1592;DHT22;789;51.612;7.510;2022-11-20T09:55:21;24.20;1.00
1592;DHT22;789;51.612;7.510;2022-11-20T09:57:50;24.10;1.00
1592;DHT22;789;51.612;7.510;2022-11-20T10:00:18;24.10;1.00
1592;DHT22;789;51.612;7.510;2022-11-20T10:02:52;24.50;1.00
1592;DHT22;789;51.612;7.510;2022-11-20T10:05:22;24.90;1.00
1592;DHT22;789;51.612;7.510;2022-11-20T10:07:53;24.80;1.00
1592;DHT22;789;51.612;7.510;2022-11-20T10:10:28;24.80;1.00
1592;DHT22;789;51.612;7.510;2022-11-20T10:13:12;25.00;1.00
1592;DHT22;789;51.612;7.510;2022-11-20T10:15:47;25.00;1.00
1592;DHT22;789;51.612;7.510;2022-11-20T10:18:31;24.10;1.00
1592;DHT22;789;51.612;7.510;2022-11-20T10:21:07;23.40;1.00
1592;DHT22;789;51.612;7.510;2022-11-20T10:23:49;22.60;1.00
1592;DHT22;789;51.612;7.510;2022-11-20T10:26:25;21.70;1.00
1592;DHT22;789;51.612;7.510;2022-11-20T10:29:10;20.70;1.00
1592;DHT22;789;51.612;7.510;2022-11-20T10:31:39;20.40;1.00
1592;DHT22;789;51.612;7.510;2022-11-20T10:34:15;20.10;1.00
1592;DHT22;789;51.612;7.510;2022-11-20T10:36:47;20.00;1.00
1592;DHT22;789;51.612;7.510;2022-11-20T10:39:18;20.20;1.00
1592;DHT22;789;51.612;7.510;2022-11-20T10:41:51;20.80;1.00
1592;DHT22;789;51.612;7.510;2022-11-20T10:44:20;21.90;1.00
1592;DHT22;789;51.612;7.510;2022-11-20T10:47:12;23.10;1.00
1592;DHT22;789;51.612;7.510;2022-11-20T10:49:41;24.30;1.00
1592;DHT22;789;51.612;7.510;2022-11-20T10:52:13;24.30;1.00
1592;DHT22;789;51.612;7.510;2022-11-20T10:54:47;24.10;1.00
1592;DHT22;789;51.612;7.510;2022-11-20T10:57:24;23.60;1.00
1592;DHT22;789;51.612;7.510;2022-11-20T10:59:59;22.90;1.00
1592;DHT22;789;51.612;7.510;2022-11-20T11:02:34;21.90;1.00
1592;DHT22;789;51.612;7.510;2022-11-20T11:05:11;21.00;1.00
1592;DHT22;789;51.612;7.510;2022-11-20T11:07:40;20.20;1.00
1592;DHT22;789;51.612;7.510;2022-11-20T11:10:15;19.30;1.00
1592;DHT22;789;51.612;7.510;2022-11-20T11:12:44;18.20;1.00
1592;DHT22;789;51.612;7.510;2022-11-20T11:15:14;16.80;1.00
1592;DHT22;789;51.612;7.510;2022-11-20T11:17:47;15.30;1.00
1592;DHT22;789;51.612;7.510;2022-11-20T11:20:19;14.20;1.00
1592;DHT22;789;51.612;7.510;2022-11-20T11:22:48;13.40;1.00
1592;DHT22;789;51.612;7.510;2022-11-20T11:25:26;12.70;1.00
1592;DHT22;789;51.612;7.510;2022-11-20T11:27:55;12.10;1.00
1592;DHT22;789;51.612;7.510;2022-11-20T11:30:24;11.60;1.00
1592;DHT22;789;51.612;7.510;2022-11-20T11:33:02;11.10;1.00
1592;DHT22;789;51.612;7.510;2022-11-20T11:35:31;10.60;1.00
1592;DHT22;789;51.612;7.510;2022-11-20T11:38:04;10.20;1.00
1592;DHT22;789;51.612;7.510;2022-11-20T11:40:32;9.80;1.00
1592;DHT22;789;51.612;7.510;2022-11-20T11:43:02;9.50;1.00
1592;DHT22;789;51.612;7.510;2022-11-20T11:45:30;9.40;1.00
1592;DHT22;789;51.612;7.510;2022-11-20T11:47:58;9.30;1.00
1592;DHT22;789;51.612;7.510;2022-11-20T11:50:30;9.30;1.00
1592;DHT22;789;51.612;7.510;2022-11-20T11:53:05;9.20;1.00
1592;DHT22;789;51.612;7.510;2022-11-20T11:55:36;9.10;1.00
1592;DHT22;789;51.612;7.510;2022-11-20T11:58:20;8.90;1.00
1592;DHT22;789;51.612;7.510;2022-11-20T12:00:54;8.90;1.00
1592;DHT22;789;51.612;7.510;2022-11-20T12:03:27;8.80;1.00
1592;DHT22;789;51.612;7.510;2022-11-20T12:05:58;8.70;1.00
1592;DHT22;789;51.612;7.510;2022-11-20T12:08:30;8.70;1.00
1592;DHT22;789;51.612;7.510;2022-11-20T12:11:02;8.70;1.00
1592;DHT22;789;51.612;7.510;2022-11-20T12:13:42;8.80;1.00
1592;DHT22;789;51.612;7.510;2022-11-20T12:16:13;8.70;1.00
1592;DHT22;789;51.612;7.510;2022-11-20T12:18:40;8.50;1.00
1592;DHT22;789;51.612;7.510;2022-11-20T12:21:18;8.30;1.00
1592;DHT22;789;51.612;7.510;2022-11-20T12:23:56;8.20;1.00
1592;DHT22;789;51.612;7.510;2022-11-20T12:26:35;8.10;1.00
1592;DHT22;789;51.612;7.510;2022-11-20T12:29:11;8.00;1.00
1592;DHT22;789;51.612;7.510;2022-11-20T12:31:52;7.90;1.00
1592;DHT22;789;51.612;7.510;2022-11-20T12:34:32;7.90;1.00
1592;DHT22;789;51.612;7.510;2022-11-20T12:37:08;7.90;1.00
1592;DHT22;789;51.612;7.510;2022-11-20T12:39:41;8.00;1.00
1592;DHT22;789;51.612;7.510;2022-11-20T12:42:46;8.10;1.00
1592;DHT22;789;51.612;7.510;2022-11-20T12:45:54;8.10;1.00
1592;DHT22;789;51.612;7.510;2022-11-20T12:48:59;8.10;1.00
1592;DHT22;789;51.612;7.510;2022-11-20T12:51:39;8.10;1.00
1592;DHT22;789;51.612;7.510;2022-11-20T12:57:16;8.10;1.00
1592;DHT22;789;51.612;7.510;2022-11-20T13:00:12;8.20;1.00
1592;DHT22;789;51.612;7.510;2022-11-20T13:03:06;8.10;1.00
1592;DHT22;789;51.612;7.510;2022-11-20T13:05:43;8.00;1.00
1592;DHT22;789;51.612;7.510;2022-11-20T13:08:20;7.80;1.00
1592;DHT22;789;51.612;7.510;2022-11-20T13:10:52;7.70;1.00
1592;DHT22;789;51.612;7.510;2022-11-20T13:13:26;7.50;1.00
1592;DHT22;789;51.612;7.510;2022-11-20T13:15:58;7.30;1.00
1592;DHT22;789;51.612;7.510;2022-11-20T13:18:27;7.20;1.00
1592;DHT22;789;51.612;7.510;2022-11-20T13:20:56;7.10;1.00
1592;DHT22;789;51.612;7.510;2022-11-20T13:23:24;7.00;1.00
1592;DHT22;789;51.612;7.510;2022-11-20T13:26:03;6.90;1.00
1592;DHT22;789;51.612;7.510;2022-11-20T13:28:30;6.80;1.00
1592;DHT22;789;51.612;7.510;2022-11-20T13:30:58;6.70;1.00
1592;DHT22;789;51.612;7.510;2022-11-20T13:33:30;6.60;1.00
1592;DHT22;789;51.612;7.510;2022-11-20T13:35:59;6.50;1.00
1592;DHT22;789;51.612;7.510;2022-11-20T13:38:26;6.40;1.00
1592;DHT22;789;51.612;7.510;2022-11-20T13:40:57;6.30;1.00
1592;DHT22;789;51.612;7.510;2022-11-20T13:43:28;6.20;1.00
1592;DHT22;789;51.612;7.510;2022-11-20T13:46:00;6.10;1.00
1592;DHT22;789;51.612;7.510;2022-11-20T13:48:31;6.00;1.00
1592;DHT22;789;51.612;7.510;2022-11-20T13:51:07;6.00;1.00
1592;DHT22;789;51.612;7.510;2022-11-20T13:56:43;5.90;1.00
1592;DHT22;789;51.612;7.510;2022-11-20T13:59:27;5.80;1.00
1592;DHT22;789;51.612;7.510;2022-11-20T14:02:00;5.70;1.00
1592;DHT22;789;51.612;7.510;2022-11-20T14:04:29;5.60;1.00
1592;DHT22;789;51.612;7.510;2022-11-20T14:06:57;5.50;1.00
1592;DHT22;789;51.612;7.510;2022-11-20T14:09:27;5.50;1.00
1592;DHT22;789;51.612;7.510;2022-11-20T14:11:55;5.40;1.00
1592;DHT22;789;51.612;7.510;2022-11-20T14:14:23;5.50;1.00
1592;DHT22;789;51.612;7.510;2022-11-20T14:16:53;5.40;1.00
1592;DHT22;789;51.612;7.510;2022-11-20T14:19:31;5.40;1.00
1592;DHT22;789;51.612;7.510;2022-11-20T14:22:15;5.30;1.00
1592;DHT22;789;51.612;7.510;2022-11-20T14:24:44;5.30;1.00
1592;DHT22;789;51.612;7.510;2022-11-20T14:27:15;5.20;1.00
1592;DHT22;789;51.612;7.510;2022-11-20T14:29:43;5.30;1.00
1592;DHT22;789;51.612;7.510;2022-11-20T14:32:11;5.30;1.00
1592;DHT22;789;51.612;7.510;2022-11-20T14:34:41;5.30;1.00
1592;DHT22;789;51.612;7.510;2022-11-20T14:37:12;5.40;1.00
1592;DHT22;789;51.612;7.510;2022-11-20T14:39:41;5.30;1.00
1592;DHT22;789;51.612;7.510;2022-11-20T14:42:17;5.30;1.00
1592;DHT22;789;51.612;7.510;2022-11-20T14:44:45;5.30;1.00
1592;DHT22;789;51.612;7.510;2022-11-20T14:47:13;5.40;1.00
1592;DHT22;789;51.612;7.510;2022-11-20T14:49:41;5.30;1.00
1592;DHT22;789;51.612;7.510;2022-11-20T14:52:13;5.30;1.00
1592;DHT22;789;51.612;7.510;2022-11-20T14:54:44;5.30;1.00
1592;DHT22;789;51.612;7.510;2022-11-20T14:57:25;5.30;1.00
1592;DHT22;789;51.612;7.510;2022-11-20T15:00:08;5.30;1.00
1592;DHT22;789;51.612;7.510;2022-11-20T15:02:44;5.20;1.00
1592;DHT22;789;51.612;7.510;2022-11-20T15:05:12;5.20;1.00
1592;DHT22;789;51.612;7.510;2022-11-20T15:07:41;5.20;1.00
1592;DHT22;789;51.612;7.510;2022-11-20T15:10:13;5.20;1.00
1592;DHT22;789;51.612;7.510;2022-11-20T15:12:47;5.20;1.00
1592;DHT22;789;51.612;7.510;2022-11-20T15:15:17;5.20;1.00
1592;DHT22;789;51.612;7.510;2022-11-20T15:17:45;5.20;1.00
1592;DHT22;789;51.612;7.510;2022-11-20T15:20:15;5.10;1.00
1592;DHT22;789;51.612;7.510;2022-11-20T15:22:43;5.10;1.00
1592;DHT22;789;51.612;7.510;2022-11-20T15:25:14;5.00;1.00
1592;DHT22;789;51.612;7.510;2022-11-20T15:27:43;4.90;1.00
1592;DHT22;789;51.612;7.510;2022-11-20T15:30:13;4.90;1.00
1592;DHT22;789;51.612;7.510;2022-11-20T15:32:41;4.90;1.00
1592;DHT22;789;51.612;7.510;2022-11-20T15:35:08;4.90;1.00
1592;DHT22;789;51.612;7.510;2022-11-20T15:37:36;4.90;1.00
1592;DHT22;789;51.612;7.510;2022-11-20T15:40:03;4.90;1.00
1592;DHT22;789;51.612;7.510;2022-11-20T15:42:30;4.90;1.00
1592;DHT22;789;51.612;7.510;2022-11-20T15:44:58;4.90;1.00
1592;DHT22;789;51.612;7.510;2022-11-20T15:47:27;5.00;1.00
1592;DHT22;789;51.612;7.510;2022-11-20T15:49:55;5.00;1.00
1592;DHT22;789;51.612;7.510;2022-11-20T15:52:22;5.00;1.00
1592;DHT22;789;51.612;7.510;2022-11-20T15:54:49;5.00;1.00
1592;DHT22;789;51.612;7.510;2022-11-20T15:57:15;5.00;1.00
1592;DHT22;789;51.612;7.510;2022-11-20T15:59:42;5.00;1.00
1592;DHT22;789;51.612;7.510;2022-11-20T16:02:11;5.00;1.00
1592;DHT22;789;51.612;7.510;2022-11-20T16:04:38;5.00;1.00
1592;DHT22;789;51.612;7.510;2022-11-20T16:07:05;5.00;1.00
1592;DHT22;789;51.612;7.510;2022-11-20T16:09:32;4.90;1.00
1592;DHT22;789;51.612;7.510;2022-11-20T16:11:59;4.90;1.00
1592;DHT22;789;51.612;7.510;2022-11-20T16:14:26;4.90;1.00
1592;DHT22;789;51.612;7.510;2022-11-20T16:17:12;4.90;1.00
1592;DHT22;789;51.612;7.510;2022-11-20T16:19:39;4.80;1.00
1592;DHT22;789;51.612;7.510;2022-11-20T16:22:05;4.80;1.00
1592;DHT22;789;51.612;7.510;2022-11-20T16:24:32;4.70;1.00
1592;DHT22;789;51.612;7.510;2022-11-20T16:26:59;4.60;1.00
1592;DHT22;789;51.612;7.510;2022-11-20T16:29:26;4.60;1.00
1592;DHT22;789;51.612;7.510;2022-11-20T16:31:52;4.50;1.00
1592;DHT22;789;51.612;7.510;2022-11-20T16:34:20;4.60;1.00
1592;DHT22;789;51.612;7.510;2022-11-20T16:36:47;4.60;1.00
1592;DHT22;789;51.612;7.510;2022-11-20T16:39:14;4.60;1.00
1592;DHT22;789;51.612;7.510;2022-11-20T16:41:40;4.60;1.00
1592;DHT22;789;51.612;7.510;2022-11-20T16:44:08;4.60;1.00
1592;DHT22;789;51.612;7.510;2022-11-20T16:46:36;4.60;1.00
1592;DHT22;789;51.612;7.510;2022-11-20T16:49:04;4.60;1.00
1592;DHT22;789;51.612;7.510;2022-11-20T16:51:34;4.60;1.00
1592;DHT22;789;51.612;7.510;2022-11-20T16:54:01;4.60;1.00
1592;DHT22;789;51.612;7.510;2022-11-20T16:56:28;4.60;1.00
1592;DHT22;789;51.612;7.510;2022-11-20T16:58:57;4.60;1.00
1592;DHT22;789;51.612;7.510;2022-11-20T17:01:24;4.60;1.00
1592;DHT22;789;51.612;7.510;2022-11-20T17:03:54;4.70;1.00
1592;DHT22;789;51.612;7.510;2022-11-20T17:06:23;4.70;1.00
1592;DHT22;789;51.612;7.510;2022-11-20T17:08:52;4.70;1.00
1592;DHT22;789;51.612;7.510;2022-11-20T17:11:19;4.70;1.00